createdAt,value
2023-11-30T00:01:36.205Z,5.86
2023-11-30T00:04:10.772Z,5.88
2023-11-30T00:06:45.145Z,5.84
2023-11-30T00:09:19.574Z,5.86
2023-11-30T00:11:53.980Z,5.86
2023-11-30T00:14:28.298Z,5.82
2023-11-30T00:17:05.539Z,5.83
2023-11-30T00:19:40.766Z,5.82
2023-11-30T00:22:17.407Z,5.83
2023-11-30T00:24:51.856Z,5.84
2023-11-30T00:27:28.863Z,5.82
2023-11-30T00:30:03.352Z,5.79
2023-11-30T00:32:38.508Z,5.79
2023-11-30T00:35:15.431Z,5.79
2023-11-30T00:37:49.891Z,5.81
2023-11-30T00:40:29.342Z,5.80
2023-11-30T00:43:03.814Z,5.78
2023-11-30T00:45:40.828Z,5.73
2023-11-30T00:48:19.970Z,5.67
2023-11-30T00:50:54.886Z,5.65
2023-11-30T00:53:31.670Z,5.63
2023-11-30T00:56:08.624Z,5.59
2023-11-30T00:58:43.000Z,5.62
2023-11-30T01:01:17.384Z,5.66
2023-11-30T01:03:51.881Z,5.64
2023-11-30T01:06:26.309Z,5.64
2023-11-30T01:09:00.836Z,5.64
2023-11-30T01:11:37.701Z,5.67
2023-11-30T01:14:14.727Z,5.69
2023-11-30T01:16:49.175Z,5.73
2023-11-30T01:19:26.164Z,5.75
2023-11-30T01:22:03.243Z,5.76
2023-11-30T01:24:42.557Z,5.77
2023-11-30T01:27:19.369Z,5.78
2023-11-30T01:29:56.023Z,5.76
2023-11-30T01:32:35.185Z,5.66
2023-11-30T01:35:12.381Z,5.67
2023-11-30T01:37:49.183Z,5.67
2023-11-30T01:40:26.051Z,5.66
2023-11-30T01:43:00.479Z,5.63
2023-11-30T01:45:39.926Z,5.60
2023-11-30T01:48:18.578Z,5.62
2023-11-30T01:50:55.648Z,5.62
2023-11-30T01:53:30.822Z,5.61
2023-11-30T01:56:11.991Z,5.64
2023-11-30T01:58:47.757Z,5.69
2023-11-30T02:01:28.092Z,5.61
2023-11-30T02:04:14.505Z,5.65
2023-11-30T02:06:53.185Z,5.68
2023-11-30T02:09:30.068Z,5.70
2023-11-30T02:12:04.607Z,5.69
2023-11-30T02:14:41.196Z,5.68
2023-11-30T02:17:20.157Z,5.66
2023-11-30T02:19:57.038Z,5.64
2023-11-30T02:22:33.963Z,5.63
2023-11-30T02:25:08.792Z,5.67
2023-11-30T02:27:49.314Z,5.66
2023-11-30T02:30:23.754Z,5.72
2023-11-30T02:32:58.342Z,5.69
2023-11-30T02:35:32.865Z,5.69
2023-11-30T02:38:09.741Z,5.73
2023-11-30T02:40:44.177Z,5.73
2023-11-30T02:43:18.602Z,5.68
2023-11-30T02:45:57.714Z,5.71
2023-11-30T02:48:32.182Z,5.73
2023-11-30T02:51:06.877Z,5.71
2023-11-30T02:53:43.596Z,5.67
2023-11-30T02:56:18.041Z,5.62
2023-11-30T02:58:54.698Z,5.58
2023-11-30T03:01:31.706Z,5.57
2023-11-30T03:04:08.787Z,5.61
2023-11-30T03:06:45.630Z,5.64
2023-11-30T03:09:22.585Z,5.63
2023-11-30T03:12:02.089Z,5.68
2023-11-30T03:14:36.501Z,5.73
2023-11-30T03:17:18.366Z,5.70
2023-11-30T03:19:52.778Z,5.75
2023-11-30T03:22:29.940Z,5.75
2023-11-30T03:25:09.240Z,5.76
2023-11-30T03:27:45.648Z,5.75
2023-11-30T03:30:22.288Z,5.76
2023-11-30T03:33:00.448Z,5.77
2023-11-30T03:35:39.545Z,5.80
2023-11-30T03:38:13.898Z,5.81
2023-11-30T03:40:50.854Z,5.75
2023-11-30T03:43:27.583Z,5.79
2023-11-30T03:46:01.990Z,5.80
2023-11-30T03:48:38.678Z,5.77
2023-11-30T03:51:14.220Z,5.79
2023-11-30T03:53:51.200Z,5.79
2023-11-30T03:56:25.691Z,5.82
2023-11-30T03:59:02.496Z,5.77
2023-11-30T04:01:41.421Z,5.72
2023-11-30T04:04:18.085Z,5.68
2023-11-30T04:06:53.309Z,5.65
2023-11-30T04:09:27.672Z,5.61
2023-11-30T04:12:03.059Z,5.61
2023-11-30T04:14:40.005Z,5.66
2023-11-30T04:17:16.608Z,5.68
2023-11-30T04:19:55.701Z,5.70
2023-11-30T04:22:30.162Z,5.72
2023-11-30T04:25:07.004Z,5.75
2023-11-30T04:27:41.441Z,5.78
2023-11-30T04:30:18.401Z,5.80
2023-11-30T04:32:52.950Z,5.79
2023-11-30T04:35:27.331Z,5.72
2023-11-30T04:38:04.255Z,5.67
2023-11-30T04:40:38.702Z,5.62
2023-11-30T04:43:15.612Z,5.59
2023-11-30T04:45:52.194Z,5.56
2023-11-30T04:48:26.905Z,5.48
2023-11-30T04:51:01.273Z,5.42
2023-11-30T04:53:35.777Z,5.37
2023-11-30T04:56:11.001Z,5.31
2023-11-30T04:58:47.655Z,5.28
2023-11-30T05:01:24.293Z,5.26
2023-11-30T05:04:01.401Z,5.24
2023-11-30T05:06:38.160Z,5.24
2023-11-30T05:09:12.624Z,5.23
2023-11-30T05:11:46.989Z,5.26
2023-11-30T05:14:23.842Z,5.28
2023-11-30T05:16:58.251Z,5.33
2023-11-30T05:19:34.845Z,5.35
2023-11-30T05:22:12.495Z,5.42
2023-11-30T05:24:51.522Z,5.51
2023-11-30T05:27:28.508Z,5.61
2023-11-30T05:30:04.847Z,5.67
2023-11-30T05:32:42.373Z,5.70
2023-11-30T05:35:16.930Z,5.70
2023-11-30T05:37:53.790Z,5.66
2023-11-30T05:40:33.177Z,5.69
2023-11-30T05:43:07.788Z,5.73
2023-11-30T05:45:47.198Z,5.72
2023-11-30T05:48:21.901Z,5.72
2023-11-30T05:50:56.801Z,5.73
2023-11-30T05:53:33.709Z,5.74
2023-11-30T05:56:10.848Z,5.81
2023-11-30T05:58:45.247Z,5.87
2023-11-30T06:01:19.950Z,5.90
2023-11-30T06:03:57.514Z,5.92
2023-11-30T06:06:34.187Z,5.97
2023-11-30T06:09:16.492Z,5.95
2023-11-30T06:11:52.977Z,5.92
2023-11-30T06:14:27.399Z,5.87
2023-11-30T06:17:01.785Z,5.80
2023-11-30T06:19:38.712Z,5.76
2023-11-30T06:22:14.489Z,5.69
2023-11-30T06:24:53.256Z,5.60
2023-11-30T06:27:27.743Z,5.56
2023-11-30T06:30:02.331Z,5.55
2023-11-30T06:32:36.908Z,5.58
2023-11-30T06:35:13.845Z,5.60
2023-11-30T06:37:48.284Z,5.58
2023-11-30T06:40:27.550Z,5.59
2023-11-30T06:43:04.192Z,5.63
2023-11-30T06:45:41.411Z,5.61
2023-11-30T06:48:16.493Z,5.66
2023-11-30T06:50:53.281Z,5.77
2023-11-30T06:53:30.238Z,5.80
2023-11-30T06:56:07.141Z,5.87
2023-11-30T06:58:42.125Z,5.85
2023-11-30T07:01:18.699Z,5.88
2023-11-30T07:03:56.714Z,5.90
2023-11-30T07:06:33.501Z,5.96
2023-11-30T07:09:13.828Z,6.01
2023-11-30T07:11:48.454Z,6.05
2023-11-30T07:14:25.339Z,6.05
2023-11-30T07:17:02.000Z,6.05
2023-11-30T07:19:40.838Z,6.03
2023-11-30T07:22:15.211Z,5.99
2023-11-30T07:24:50.345Z,5.96
2023-11-30T07:27:27.867Z,5.99
2023-11-30T07:30:02.438Z,6.04
2023-11-30T07:32:39.197Z,6.03
2023-11-30T07:35:15.875Z,6.02
2023-11-30T07:37:53.234Z,6.03
2023-11-30T07:40:35.580Z,6.04
2023-11-30T07:43:13.062Z,6.10
2023-11-30T07:45:50.182Z,6.09
2023-11-30T07:48:26.804Z,6.02
2023-11-30T07:51:03.716Z,5.95
2023-11-30T07:53:40.437Z,5.90
2023-11-30T07:56:14.887Z,5.85
2023-11-30T07:58:51.682Z,5.80
2023-11-30T08:01:29.205Z,5.73
2023-11-30T08:04:06.218Z,5.67
2023-11-30T08:06:40.761Z,5.67
2023-11-30T08:09:18.209Z,5.64
2023-11-30T08:11:55.186Z,5.65
2023-11-30T08:14:31.850Z,5.63
2023-11-30T08:17:08.930Z,5.68
2023-11-30T08:19:46.066Z,5.69
2023-11-30T08:22:23.086Z,5.68
2023-11-30T08:25:01.697Z,5.70
2023-11-30T08:27:40.855Z,5.71
2023-11-30T08:30:18.866Z,5.78
2023-11-30T08:32:55.379Z,5.81
2023-11-30T08:35:32.030Z,5.84
2023-11-30T08:38:11.308Z,5.89
2023-11-30T08:40:45.692Z,5.97
2023-11-30T08:43:24.700Z,5.98
2023-11-30T08:45:59.281Z,6.01
2023-11-30T08:48:36.538Z,5.99
2023-11-30T08:51:12.601Z,6.02
2023-11-30T08:53:49.260Z,6.00
2023-11-30T08:56:26.898Z,6.03
2023-11-30T08:59:03.530Z,6.05
2023-11-30T09:01:40.146Z,6.04
2023-11-30T09:04:15.442Z,6.08
2023-11-30T09:06:49.912Z,6.28
2023-11-30T09:09:29.583Z,6.57
2023-11-30T09:12:06.543Z,6.89
2023-11-30T09:14:40.912Z,7.20
2023-11-30T09:17:17.875Z,7.53
2023-11-30T09:19:54.586Z,7.92
2023-11-30T09:22:31.357Z,8.27
2023-11-30T09:25:09.000Z,8.61
2023-11-30T09:27:45.948Z,8.94
2023-11-30T09:30:20.419Z,9.18
2023-11-30T09:32:57.471Z,9.40
2023-11-30T09:35:34.920Z,9.57
2023-11-30T09:38:15.953Z,9.75
2023-11-30T09:40:54.163Z,9.84
2023-11-30T09:43:30.776Z,9.87
2023-11-30T09:46:12.621Z,9.87
2023-11-30T09:48:51.844Z,10.03
2023-11-30T09:51:30.273Z,10.19
2023-11-30T09:54:07.200Z,10.32
2023-11-30T09:56:43.831Z,10.42
2023-11-30T09:59:21.078Z,10.41
2023-11-30T10:01:59.610Z,10.48
2023-11-30T10:04:43.721Z,10.45
2023-11-30T10:07:18.371Z,10.51
2023-11-30T10:09:52.761Z,10.50
2023-11-30T10:12:34.206Z,10.50
2023-11-30T10:15:11.587Z,10.67
2023-11-30T10:17:46.340Z,10.84
2023-11-30T10:20:21.334Z,10.85
2023-11-30T10:22:55.791Z,10.86
2023-11-30T10:25:34.691Z,10.91
2023-11-30T10:28:16.472Z,10.91
2023-11-30T10:30:58.580Z,10.78
2023-11-30T10:33:38.987Z,10.88
2023-11-30T10:36:21.797Z,10.90
2023-11-30T10:39:15.767Z,10.84
2023-11-30T10:42:02.320Z,10.98
2023-11-30T10:44:44.605Z,11.24
2023-11-30T10:47:20.876Z,11.33
2023-11-30T10:49:58.685Z,10.97
2023-11-30T10:52:36.516Z,10.10
2023-11-30T10:55:13.806Z,9.42
2023-11-30T10:57:56.367Z,8.98
2023-11-30T11:00:36.857Z,8.62
2023-11-30T11:03:12.524Z,8.34
2023-11-30T11:05:47.397Z,8.19
2023-11-30T11:08:21.925Z,8.08
2023-11-30T11:11:20.317Z,7.84
2023-11-30T11:13:54.805Z,7.72
2023-11-30T11:16:46.104Z,7.51
2023-11-30T11:19:26.752Z,7.40
2023-11-30T11:22:05.958Z,7.27
2023-11-30T11:24:46.595Z,7.15
2023-11-30T11:27:35.536Z,7.11
2023-11-30T11:30:14.653Z,7.06
2023-11-30T11:32:51.772Z,6.96
2023-11-30T11:35:28.367Z,6.83
2023-11-30T11:38:03.017Z,6.71
2023-11-30T11:40:41.422Z,6.70
2023-11-30T11:43:18.096Z,6.73
2023-11-30T11:45:55.102Z,6.74
2023-11-30T11:48:32.164Z,6.71
2023-11-30T11:51:06.575Z,6.67
2023-11-30T11:53:46.620Z,6.59
2023-11-30T11:56:23.474Z,6.56
2023-11-30T11:59:00.087Z,6.59
2023-11-30T12:01:43.751Z,6.61
2023-11-30T12:04:30.116Z,6.71
2023-11-30T12:07:18.833Z,6.84
2023-11-30T12:10:01.452Z,6.95
2023-11-30T12:12:41.294Z,6.96
2023-11-30T12:15:20.419Z,6.94
2023-11-30T12:17:57.490Z,6.96
2023-11-30T12:20:37.901Z,6.98
2023-11-30T12:23:13.939Z,7.00
2023-11-30T12:25:48.346Z,6.95
2023-11-30T12:28:25.030Z,6.88
2023-11-30T12:31:04.572Z,6.84
2023-11-30T12:33:41.354Z,6.85
2023-11-30T12:36:18.465Z,6.87
2023-11-30T12:38:53.006Z,6.93
2023-11-30T12:41:27.396Z,7.04
2023-11-30T12:44:06.398Z,7.10
2023-11-30T12:46:44.794Z,7.21
2023-11-30T12:49:21.676Z,7.26
2023-11-30T12:52:01.339Z,7.25
2023-11-30T12:54:35.927Z,7.22
2023-11-30T12:57:14.842Z,7.24
2023-11-30T12:59:50.126Z,7.34
2023-11-30T13:02:24.695Z,7.38
2023-11-30T13:05:04.101Z,7.35
2023-11-30T13:07:41.127Z,7.34
2023-11-30T13:10:15.542Z,7.33
2023-11-30T13:12:52.476Z,7.31
2023-11-30T13:15:27.604Z,7.35
2023-11-30T13:18:04.747Z,7.27
2023-11-30T13:20:41.823Z,7.25
2023-11-30T13:23:18.455Z,7.20
2023-11-30T13:25:59.022Z,7.12
2023-11-30T13:28:37.951Z,7.07
2023-11-30T13:31:19.950Z,7.09
2023-11-30T13:33:54.710Z,7.06
2023-11-30T13:36:29.321Z,6.97
2023-11-30T13:39:06.378Z,6.92
2023-11-30T13:41:43.343Z,6.89
2023-11-30T13:44:20.090Z,6.82
2023-11-30T13:46:59.311Z,6.82
2023-11-30T13:49:33.734Z,6.82
2023-11-30T13:52:12.988Z,6.83
2023-11-30T13:54:47.526Z,6.86
2023-11-30T13:57:24.409Z,6.82
2023-11-30T13:59:58.959Z,6.85
2023-11-30T14:02:40.908Z,6.90
2023-11-30T14:05:15.471Z,6.89
2023-11-30T14:07:49.914Z,6.90
2023-11-30T14:10:24.847Z,6.97
2023-11-30T14:12:59.353Z,7.00
2023-11-30T14:15:36.294Z,7.02
2023-11-30T14:18:15.788Z,6.99
2023-11-30T14:20:52.780Z,6.94
2023-11-30T14:23:29.726Z,6.92
2023-11-30T14:26:09.076Z,6.90
2023-11-30T14:28:49.282Z,6.91
2023-11-30T14:31:26.085Z,6.93
2023-11-30T14:34:03.176Z,6.88
2023-11-30T14:36:37.608Z,6.85
2023-11-30T14:39:12.257Z,6.75
2023-11-30T14:41:46.658Z,6.73
2023-11-30T14:44:23.675Z,6.73
2023-11-30T14:47:00.679Z,6.66
2023-11-30T14:49:35.127Z,6.61
2023-11-30T14:52:12.478Z,6.53
2023-11-30T14:54:53.542Z,6.47
2023-11-30T14:57:28.074Z,6.45
2023-11-30T15:00:13.114Z,6.38
2023-11-30T15:02:48.165Z,6.38
2023-11-30T15:05:24.773Z,6.41
2023-11-30T15:08:01.953Z,6.48
2023-11-30T15:10:40.759Z,6.53
2023-11-30T15:13:15.133Z,6.57
2023-11-30T15:15:52.408Z,6.63
2023-11-30T15:18:32.569Z,6.65
2023-11-30T15:21:06.962Z,6.68
2023-11-30T15:23:41.564Z,6.70
2023-11-30T15:26:17.297Z,6.65
2023-11-30T15:28:51.701Z,6.62
2023-11-30T15:31:27.267Z,6.63
2023-11-30T15:34:04.079Z,6.63
2023-11-30T15:36:38.655Z,6.60
2023-11-30T15:39:17.462Z,6.64
2023-11-30T15:41:54.341Z,6.67
2023-11-30T15:44:28.788Z,6.68
2023-11-30T15:47:04.164Z,6.64
2023-11-30T15:49:46.393Z,6.64
2023-11-30T15:52:24.549Z,6.69
2023-11-30T15:55:01.150Z,6.67
2023-11-30T15:57:38.129Z,6.61
2023-11-30T16:00:13.853Z,6.59
2023-11-30T16:02:50.206Z,6.61
2023-11-30T16:05:27.073Z,6.62
2023-11-30T16:08:04.351Z,6.63
2023-11-30T16:10:41.018Z,6.64
2023-11-30T16:13:15.783Z,6.65
2023-11-30T16:15:52.886Z,6.65
2023-11-30T16:18:28.146Z,6.66
2023-11-30T16:21:07.367Z,6.66
2023-11-30T16:23:44.678Z,6.70
2023-11-30T16:26:28.470Z,6.62
2023-11-30T16:29:07.810Z,6.62
2023-11-30T16:31:42.292Z,6.56
2023-11-30T16:34:20.957Z,6.53
2023-11-30T16:36:57.967Z,6.46
2023-11-30T16:39:32.393Z,6.47
2023-11-30T16:42:06.938Z,6.49
2023-11-30T16:44:42.297Z,6.47
2023-11-30T16:47:16.822Z,6.47
2023-11-30T16:49:53.707Z,6.49
2023-11-30T16:52:30.057Z,6.52
2023-11-30T16:55:04.691Z,6.51
2023-11-30T16:57:39.242Z,6.52
2023-11-30T17:00:14.205Z,6.49
2023-11-30T17:02:54.936Z,6.45
2023-11-30T17:05:32.074Z,6.43
2023-11-30T17:08:06.483Z,6.39
2023-11-30T17:10:41.141Z,6.35
2023-11-30T17:13:15.670Z,6.29
2023-11-30T17:15:55.768Z,6.23
2023-11-30T17:18:30.169Z,6.21
2023-11-30T17:21:05.360Z,6.12
2023-11-30T17:23:40.370Z,6.08
2023-11-30T17:26:19.480Z,6.06
2023-11-30T17:28:56.105Z,6.06
2023-11-30T17:31:30.733Z,5.99
2023-11-30T17:34:09.978Z,5.97
2023-11-30T17:36:44.739Z,5.98
2023-11-30T17:39:21.386Z,5.98
2023-11-30T17:42:00.482Z,5.95
2023-11-30T17:44:34.922Z,5.90
2023-11-30T17:47:09.420Z,5.86
2023-11-30T17:49:46.055Z,5.80
2023-11-30T17:52:25.445Z,5.80
2023-11-30T17:55:04.998Z,5.82
2023-11-30T17:57:39.550Z,5.84
2023-11-30T18:00:14.572Z,5.82
2023-11-30T18:02:53.988Z,5.79
2023-11-30T18:05:30.710Z,5.78
2023-11-30T18:08:07.460Z,5.76
2023-11-30T18:10:44.099Z,5.74
2023-11-30T18:13:20.690Z,5.79
2023-11-30T18:15:59.250Z,5.79
2023-11-30T18:18:38.618Z,5.82
2023-11-30T18:21:13.977Z,5.78
2023-11-30T18:23:52.789Z,5.78
2023-11-30T18:26:29.638Z,5.72
2023-11-30T18:29:04.351Z,5.72
2023-11-30T18:31:41.564Z,5.73
2023-11-30T18:34:20.795Z,5.80
2023-11-30T18:36:57.715Z,5.67
2023-11-30T18:39:34.517Z,5.67
2023-11-30T18:42:08.995Z,5.62
2023-11-30T18:44:43.363Z,5.60
2023-11-30T18:47:17.872Z,5.61
2023-11-30T18:49:52.351Z,5.64
2023-11-30T18:52:26.816Z,5.66
2023-11-30T18:55:01.325Z,5.66
2023-11-30T18:57:40.576Z,5.66
2023-11-30T19:00:17.856Z,5.57
2023-11-30T19:02:55.048Z,5.45
2023-11-30T19:05:34.013Z,5.37
2023-11-30T19:08:15.059Z,5.28
2023-11-30T19:10:54.157Z,5.25
2023-11-30T19:13:28.533Z,5.27
2023-11-30T19:16:05.600Z,5.22
2023-11-30T19:18:49.035Z,5.19
2023-11-30T19:21:29.164Z,5.26
2023-11-30T19:24:03.603Z,5.27
2023-11-30T19:26:41.083Z,5.22
2023-11-30T19:29:20.166Z,5.18
2023-11-30T19:31:57.011Z,5.17
2023-11-30T19:34:31.474Z,5.13
2023-11-30T19:37:08.358Z,5.01
2023-11-30T19:39:44.991Z,5.01
2023-11-30T19:42:25.707Z,4.98
2023-11-30T19:45:02.760Z,4.96
2023-11-30T19:47:42.093Z,4.95
2023-11-30T19:50:16.915Z,4.98
2023-11-30T19:52:53.866Z,5.01
2023-11-30T19:55:32.650Z,5.05
2023-11-30T19:58:09.540Z,5.04
2023-11-30T20:00:45.568Z,4.99
2023-11-30T20:03:20.383Z,4.94
2023-11-30T20:05:57.194Z,4.91
2023-11-30T20:08:31.733Z,4.86
2023-11-30T20:11:10.826Z,4.83
2023-11-30T20:13:45.412Z,4.83
2023-11-30T20:16:19.842Z,4.85
2023-11-30T20:18:56.832Z,4.88
2023-11-30T20:21:33.726Z,4.91
2023-11-30T20:24:10.769Z,4.89
2023-11-30T20:26:48.636Z,4.87
2023-11-30T20:29:27.546Z,4.86
2023-11-30T20:32:02.490Z,4.86
2023-11-30T20:34:39.552Z,4.87
2023-11-30T20:37:16.895Z,4.90
2023-11-30T20:39:54.296Z,4.93
2023-11-30T20:42:29.653Z,4.94
2023-11-30T20:45:06.946Z,4.88
2023-11-30T20:47:41.496Z,4.83
2023-11-30T20:50:16.019Z,4.84
2023-11-30T20:52:50.595Z,4.87
2023-11-30T20:55:25.080Z,4.88
2023-11-30T20:58:01.977Z,4.79
2023-11-30T21:00:36.563Z,4.69
2023-11-30T21:03:11.144Z,4.67
2023-11-30T21:05:49.980Z,4.68
2023-11-30T21:08:27.076Z,4.69
2023-11-30T21:11:09.370Z,4.71
2023-11-30T21:13:46.328Z,4.78
2023-11-30T21:16:23.342Z,4.73
2023-11-30T21:19:00.862Z,4.76
2023-11-30T21:21:40.583Z,4.74
2023-11-30T21:24:17.488Z,4.71
2023-11-30T21:26:52.012Z,4.69
2023-11-30T21:29:27.809Z,4.61
2023-11-30T21:32:10.283Z,4.58
2023-11-30T21:34:44.988Z,4.55
2023-11-30T21:37:23.864Z,4.52
2023-11-30T21:39:58.271Z,4.49
2023-11-30T21:42:32.774Z,4.52
2023-11-30T21:45:10.020Z,4.51
2023-11-30T21:47:44.509Z,4.50
2023-11-30T21:50:26.310Z,4.44
2023-11-30T21:53:01.525Z,4.54
2023-11-30T21:55:40.582Z,4.58
2023-11-30T21:58:17.546Z,4.62
2023-11-30T22:00:55.052Z,4.64
2023-11-30T22:03:29.620Z,4.65
2023-11-30T22:06:08.704Z,4.60
2023-11-30T22:08:43.126Z,4.58
2023-11-30T22:11:19.794Z,4.55
2023-11-30T22:13:56.765Z,4.54
2023-11-30T22:16:38.433Z,4.54
2023-11-30T22:19:13.444Z,4.59
2023-11-30T22:21:50.376Z,4.60
2023-11-30T22:24:24.917Z,4.62
2023-11-30T22:26:59.540Z,4.67
2023-11-30T22:29:36.515Z,4.70
2023-11-30T22:32:11.550Z,4.75
2023-11-30T22:34:50.884Z,4.78
2023-11-30T22:37:27.793Z,4.86
2023-11-30T22:40:07.277Z,4.85
2023-11-30T22:42:41.724Z,4.80
2023-11-30T22:45:20.948Z,4.81
2023-11-30T22:48:00.613Z,4.85
2023-11-30T22:50:37.672Z,4.91
2023-11-30T22:53:12.250Z,4.96
2023-11-30T22:55:49.623Z,4.91
2023-11-30T22:58:24.171Z,4.92
2023-11-30T23:00:58.770Z,4.93
2023-11-30T23:03:33.347Z,4.87
2023-11-30T23:06:13.288Z,4.82
2023-11-30T23:08:51.273Z,4.84
2023-11-30T23:11:26.199Z,4.90
2023-11-30T23:14:06.157Z,4.97
2023-11-30T23:16:45.300Z,5.05
2023-11-30T23:19:22.151Z,5.11
2023-11-30T23:21:56.646Z,5.06
2023-11-30T23:24:31.982Z,5.09
2023-11-30T23:27:09.235Z,5.11
2023-11-30T23:29:48.031Z,5.09
2023-11-30T23:32:26.368Z,5.10
2023-11-30T23:35:07.892Z,5.11
2023-11-30T23:37:45.014Z,5.18
2023-11-30T23:40:19.498Z,5.15
2023-11-30T23:42:53.978Z,5.14
2023-11-30T23:45:28.501Z,5.07
2023-11-30T23:48:05.420Z,4.99
2023-11-30T23:50:39.894Z,4.98
2023-11-30T23:53:16.572Z,4.93
2023-11-30T23:55:55.780Z,4.90
2023-11-30T23:58:30.292Z,4.93
